PORTS® Data Listing: 8454049 Quonset Point, RI

CO-OPS RAW PORTS DATA

************************      PRELIMINARY DATA      ************************** 

     THIS RAW DATA HAS NOT BEEN SUBJECT TO THE NATIONAL OCEAN SERVICE'S        
     QUALITY CONTROL OR QUALITY ASSURANCE PROCEDURES AND DOES NOT MEET         
     THE CRITERIA AND STANDARDS OF OFFICIAL NATIONAL OCEAN SERVICE             
     DATA.  IT IS RELEASED FOR LIMITED PUBLIC USE AS PRELIMINARY DATA TO       
     BE USED ONLY WITH APPROPRIATE CAUTION.                                    

************************      PRELIMINARY DATA      ************************** 


       CD   -   Calendar date
       T    -   Time
       TZ   -   Timezone
       PW   -   Predicted water level (feet above MLLW)
       OW   -   Observed water level (feet above MLLW)
       WS   -   Wind speed (knots)
       WD   -   Wind direction (degrees true)
       WG   -   Wind gust (knots)
       AT   -   Air temperature (degrees farenheit)
       WT   -   Water temperature (degrees farenheit)
       AP   -   Air pressure (millibars)
       SA   -   Salinty (PSU - Practical Salinity Units)
       SG   -   Specific gravity
       RH   -   Relative humidity
       AG   -   Air gap (feet)
       VI   -   Visibility (nautical miles)

       ** NOTE **
       A variable that has its data fields filled with "9"s, indicates that
       data was not collected for that sample period.
       **********


STATION NAME: Quonset Point (8454049)
****************************************************************************************************
    CD       T    TZ    PW     OW    WS   WD   WG    AT    WT    AP    SA    SG     RH    AG   VI
****************************************************************************************************
2019/09/18 22:54 EDT    3.34   4.20   12   31   16  56.8  67.6 1027.2 20.5  1.015 -99.9 -99.99 -9.99
2019/09/18 23:00 EDT    3.37   4.25   14   33   16  56.8  67.6 1027.2 21.2  1.015 -99.9 -99.99 -9.99
2019/09/18 23:06 EDT    3.40   4.25   13   32   15  57.0  67.6 1027.2 21.5  1.015 -99.9 -99.99 -9.99
2019/09/18 23:12 EDT    3.42   4.27   13   33   16  56.8  67.5 1027.2 21.5  1.015 -99.9 -99.99 -9.99
2019/09/18 23:18 EDT    3.43   4.26   13   26   16  56.8  67.5 1027.1 21.3  1.015 -99.9 -99.99 -9.99
2019/09/18 23:24 EDT    3.45   4.26   13   17   16  56.7  67.5 1027.0 21.6  1.016 -99.9 -99.99 -9.99
2019/09/18 23:30 EDT    3.45   4.25   15   28   17  56.8  67.5 1027.0 21.4  1.015 -99.9 -99.99 -9.99
2019/09/18 23:36 EDT    3.45   4.24   14   25   17  56.8  67.5 1027.0 21.4  1.015 -99.9 -99.99 -9.99
2019/09/18 23:42 EDT    3.45   4.21   13   34   17  56.7  67.5 1027.1 20.3  1.015 -99.9 -99.99 -9.99
2019/09/18 23:48 EDT    3.44   4.19   14   42   17  57.0  67.5 1027.0 20.3  1.015 -99.9 -99.99 -9.99
2019/09/18 23:54 EDT    3.42   4.17   14   35   17  56.5  67.3 1026.9 21.3  1.015 -99.9 -99.99 -9.99
2019/09/19 00:00 EDT    3.40   4.18   14   34   17  56.8  67.1 1026.9 21.6  1.016 -99.9 -99.99 -9.99
2019/09/19 00:06 EDT    3.37   4.14   14   35   17  56.3  67.3 1026.8 21.1  1.015 -99.9 -99.99 -9.99
2019/09/19 00:12 EDT    3.34   4.13   14   37   16  56.5  67.3 1026.9 20.8  1.015 -99.9 -99.99 -9.99
2019/09/19 00:18 EDT    3.30   4.11   14   38   17  56.5  67.3 1026.9 21.1  1.015 -99.9 -99.99 -9.99
2019/09/19 00:24 EDT    3.26   4.06   14   30   16  56.7  67.3 1026.9 21.3  1.015 -99.9 -99.99 -9.99
2019/09/19 00:30 EDT    3.21   4.00   13   36   16  56.8  67.3 1026.9 20.5  1.015 -99.9 -99.99 -9.99
2019/09/19 00:36 EDT    3.16   3.92   13   33   16  56.7  67.1 1026.7 20.6  1.015 -99.9 -99.99 -9.99
2019/09/19 00:42 EDT    3.10   3.85   14   37   17  56.5  67.1 1026.7 20.8  1.015 -99.9 -99.99 -9.99
2019/09/19 00:48 EDT    3.04   3.79   13   29   16  56.7  67.1 1026.8 20.7  1.015 -99.9 -99.99 -9.99
2019/09/19 00:54 EDT    2.98   3.73   10    2   17  54.3  67.1 1026.7 21.4  1.015 -99.9 -99.99 -9.99
2019/09/19 01:00 EDT    2.91   3.64    5  341    7  52.2  67.1 1026.7 20.9  1.015 -99.9 -99.99 -9.99
2019/09/19 01:06 EDT    2.83   3.57    6  334   10  52.2  67.1 1026.8 20.4  1.015 -99.9 -99.99 -9.99
2019/09/19 01:12 EDT    2.76   3.46    5  325    8  52.0  67.1 1026.8 20.7  1.015 -99.9 -99.99 -9.99
2019/09/19 01:18 EDT    2.68   3.35    6  325    8  51.8  67.1 1026.6 21.1  1.015 -99.9 -99.99 -9.99
2019/09/19 01:24 EDT    2.59   3.29    6  323    8  51.6  67.1 1026.5 20.4  1.015 -99.9 -99.99 -9.99
2019/09/19 01:30 EDT    2.51   3.25    5  326    8  51.3  67.3 1026.6 19.8  1.014 -99.9 -99.99 -9.99
2019/09/19 01:36 EDT    2.42   3.17    6  326    9  51.1  67.1 1026.7 19.5  1.014 -99.9 -99.99 -9.99
2019/09/19 01:42 EDT    2.33   3.07    5  322    8  51.1  67.3 1026.7 20.0  1.014 -99.9 -99.99 -9.99
2019/09/19 01:48 EDT    2.24   2.94    5  315    8  50.9  67.3 1026.7 19.6  1.014 -99.9 -99.99 -9.99
2019/09/19 01:54 EDT    2.15   2.82    5  323    8  50.9  67.3 1026.6 19.9  1.014 -99.9 -99.99 -9.99
2019/09/19 02:00 EDT    2.06   2.70    6  322    8  50.7  67.3 1026.6 19.6  1.014 -99.9 -99.99 -9.99
2019/09/19 02:06 EDT    1.96   2.62    6  326    8  50.5  67.3 1026.7 19.6  1.014 -99.9 -99.99 -9.99
2019/09/19 02:12 EDT    1.87   2.54    5  322    7  50.5  67.3 1026.7 19.2  1.014 -99.9 -99.99 -9.99
2019/09/19 02:18 EDT    1.77   2.42    5  326    7  50.4  67.3 1026.7 21.0  1.015 -99.9 -99.99 -9.99
2019/09/19 02:24 EDT    1.68   2.29    4  325    6  50.5  67.3 1026.6 21.2  1.015 -99.9 -99.99 -9.99
2019/09/19 02:30 EDT    1.59   2.16    4  319    7  50.4  67.3 1026.5 21.5  1.015 -99.9 -99.99 -9.99
2019/09/19 02:36 EDT    1.49   2.07    4  324    6  50.2  67.3 1026.6 21.3  1.015 -99.9 -99.99 -9.99
2019/09/19 02:42 EDT    1.40   1.97    5  325    8  50.5  67.1 1026.5 21.1  1.015 -99.9 -99.99 -9.99
2019/09/19 02:48 EDT    1.31   1.91    5  331    7  50.4  67.1 1026.5 21.0  1.015 -99.9 -99.99 -9.99
2019/09/19 02:54 EDT    1.23   1.82    4  325    7  50.4  67.1 1026.5 21.4  1.015 -99.9 -99.99 -9.99
2019/09/19 03:00 EDT    1.14   1.73    4  324    6  50.4  67.1 1026.5 21.5  1.016 -99.9 -99.99 -9.99
2019/09/19 03:06 EDT    1.06   1.64    4  322    5  50.0  67.1 1026.5 21.0  1.015 -99.9 -99.99 -9.99
2019/09/19 03:12 EDT    0.98   1.56    4  320    5  50.0  67.3 1026.4 20.3  1.015 -99.9 -99.99 -9.99
2019/09/19 03:18 EDT    0.91   1.51    4  324    6  49.8  67.3 1026.5 21.2  1.015 -99.9 -99.99 -9.99
2019/09/19 03:24 EDT    0.83   1.45    5  323    6  49.8  67.5 1026.4 20.1  1.014 -99.9 -99.99 -9.99
2019/09/19 03:30 EDT    0.77   1.34    4  321    6  49.8  67.3 1026.4 21.5  1.015 -99.9 -99.99 -9.99
2019/09/19 03:36 EDT    0.70   1.21    4  338    6  49.8  67.5 1026.5 21.1  1.015 -99.9 -99.99 -9.99
2019/09/19 03:42 EDT    0.64   1.15    5  334    7  49.8  67.3 1026.5 21.4  1.015 -99.9 -99.99 -9.99
2019/09/19 03:48 EDT    0.59   1.11    6  338    8  49.8  67.3 1026.6 21.4  1.015 -99.9 -99.99 -9.99
2019/09/19 03:54 EDT    0.54   1.02    6  338    8  49.6  67.3 1026.5 21.7  1.016 -99.9 -99.99 -9.99
2019/09/19 04:00 EDT    0.49   0.96    6  344    8  49.5  67.1 1026.5 21.3  1.015 -99.9 -99.99 -9.99
2019/09/19 04:06 EDT    0.45   0.97    5  351    7  49.8  67.1 1026.5 21.4  1.015 -99.9 -99.99 -9.99
2019/09/19 04:12 EDT    0.42   0.96    5  340    7  49.8  67.3 1026.5 22.2  1.016 -99.9 -99.99 -9.99
2019/09/19 04:18 EDT    0.39   0.92    4  343    7  49.6  67.1 1026.4 21.7  1.016 -99.9 -99.99 -9.99
2019/09/19 04:24 EDT    0.37   0.91    6  335    8  49.6  67.1 1026.3 21.8  1.016 -99.9 -99.99 -9.99
2019/09/19 04:30 EDT    0.35   0.91    7  338    9  49.8  66.9 1026.3 21.2  1.015 -99.9 -99.99 -9.99
2019/09/19 04:36 EDT    0.34   0.90    7  338   10  49.8  66.9 1026.4 21.8  1.016 -99.9 -99.99 -9.99
2019/09/19 04:42 EDT    0.33   0.91    7  338    9  49.6  66.9 1026.3 21.8  1.016 -99.9 -99.99 -9.99
2019/09/19 04:48 EDT    0.33   0.91    7  335   10  49.1  66.9 1026.3 22.0  1.016 -99.9 -99.99 -9.99
2019/09/19 04:54 EDT    0.33   0.93    7  336    9  48.9  66.9 1026.3 21.8  1.016 -99.9 -99.99 -9.99
2019/09/19 05:00 EDT    0.34   0.95    5  334    9  49.1  66.9 1026.2 21.9  1.016 -99.9 -99.99 -9.99
2019/09/19 05:06 EDT    0.36   0.96    6  336    9  48.6  66.9 1026.3 21.7  1.016 -99.9 -99.99 -9.99
2019/09/19 05:12 EDT    0.38   0.98    6  338    8  48.9  66.9 1026.4 22.1  1.016 -99.9 -99.99 -9.99
2019/09/19 05:18 EDT    0.40   1.06    7  338    9  48.9  66.9 1026.5 22.2  1.016 -99.9 -99.99 -9.99
2019/09/19 05:24 EDT    0.43   1.09    6  338    8  49.1  66.7 1026.5 21.9  1.016 -99.9 -99.99 -9.99
2019/09/19 05:30 EDT    0.47   1.07    6  341    8  49.1  66.7 1026.7 22.1  1.016 -99.9 -99.99 -9.99
2019/09/19 05:36 EDT    0.51   1.11    7  341   10  48.9  66.7 1026.7 22.1  1.016 -99.9 -99.99 -9.99
2019/09/19 05:42 EDT    0.55   1.18    6  339   10  49.1  66.7 1026.7 22.1  1.016 -99.9 -99.99 -9.99
2019/09/19 05:48 EDT    0.59   1.16    7  337   10  48.9  66.7 1026.6 21.9  1.016 -99.9 -99.99 -9.99
2019/09/19 05:54 EDT    0.64   1.18    6  343   10  49.1  66.7 1026.8 22.0  1.016 -99.9 -99.99 -9.99
2019/09/19 06:00 EDT    0.70   1.26    5  336    8  48.9  66.7 1026.8 21.8  1.016 -99.9 -99.99 -9.99
2019/09/19 06:06 EDT    0.75   1.30    4  334    7  49.1  66.7 1026.9 21.7  1.016 -99.9 -99.99 -9.99
2019/09/19 06:12 EDT    0.81   1.34    4  340    6  48.7  66.7 1026.9 21.2  1.015 -99.9 -99.99 -9.99
2019/09/19 06:18 EDT    0.87   1.43    3  332    7  48.6  66.7 1026.9 22.2  1.016 -99.9 -99.99 -9.99
2019/09/19 06:24 EDT    0.93   1.51    3  316    5  48.2  66.7 1026.9 29.9  1.022 -99.9 -99.99 -9.99
2019/09/19 06:30 EDT    0.99   1.57    2  295    5  47.7  66.7 1027.0 29.9  1.022 -99.9 -99.99 -9.99
2019/09/19 06:36 EDT    1.05   1.61    3  280    4  47.1  66.6 1027.1 30.0  1.022 -99.9 -99.99 -9.99
2019/09/19 06:42 EDT    1.12   1.65    3  290    4  47.3  66.6 1027.2 30.0  1.022 -99.9 -99.99 -9.99
2019/09/19 06:48 EDT    1.18   1.70    2  301    4  47.5  66.6 1027.3 30.0  1.022 -99.9 -99.99 -9.99
2019/09/19 06:54 EDT    1.24   1.79    2  308    4  47.5  66.6 1027.3 26.3  1.019 -99.9 -99.99 -9.99
2019/09/19 07:00 EDT    1.31   1.80    3  315    4  47.7  66.6 1027.3 30.0  1.022 -99.9 -99.99 -9.99
2019/09/19 07:06 EDT    1.37   1.80    3  317    4  47.8  66.6 1027.3 29.9  1.022 -99.9 -99.99 -9.99
2019/09/19 07:12 EDT    1.44   1.83    4  325    4  48.0  66.6 1027.4 30.0  1.022 -99.9 -99.99 -9.99
2019/09/19 07:18 EDT    1.50   1.89    3  324    4  48.7  66.6 1027.4 29.9  1.022 -99.9 -99.99 -9.99
2019/09/19 07:24 EDT    1.56   1.96    3  319    4  49.1  66.4 1027.4 30.0  1.022 -99.9 -99.99 -9.99
2019/09/19 07:30 EDT    1.63   2.04    2  320    4  49.8  66.4 1027.5 -9.9 -9.999 -99.9 -99.99 -9.99
2019/09/19 07:36 EDT    1.69   2.08    2  315    4  50.2  66.4 1027.5 30.0  1.022 -99.9 -99.99 -9.99
2019/09/19 07:42 EDT    1.75   2.11    2  319    4  50.5  66.4 1027.5 30.0  1.022 -99.9 -99.99 -9.99
2019/09/19 07:48 EDT    1.81   2.17    2  320    3  51.3  66.6 1027.5 29.8  1.022 -99.9 -99.99 -9.99
2019/09/19 07:54 EDT    1.87   2.17    5  339    7  52.2  66.4 1027.5 30.0  1.022 -99.9 -99.99 -9.99
2019/09/19 08:00 EDT    1.93   2.19    6  344    8  52.3  66.6 1027.7 29.9  1.022 -99.9 -99.99 -9.99
2019/09/19 08:06 EDT    1.99   2.25    7  340    9  52.3  66.4 1027.8 30.0  1.022 -99.9 -99.99 -9.99
2019/09/19 08:12 EDT    2.05   2.33    8  352   10  52.7  66.6 1027.8 29.9  1.022 -99.9 -99.99 -9.99
2019/09/19 08:18 EDT    2.10   2.39    7  357   10  53.2  66.6 1027.8 29.9  1.022 -99.9 -99.99 -9.99
2019/09/19 08:24 EDT    2.16   2.43    6  360   10  53.6  66.4 1028.0 30.0  1.022 -99.9 -99.99 -9.99
2019/09/19 08:30 EDT    2.22   2.48    7   10   10  54.0  66.6 1027.9 29.9  1.022 -99.9 -99.99 -9.99
2019/09/19 08:36 EDT    2.27   2.58   11    8   14  53.8  66.6 1027.9 27.6  1.020 -99.9 -99.99 -9.99
2019/09/19 08:42 EDT    2.33   2.65   11    5   13  54.3  66.6 1027.9 29.9  1.022 -99.9 -99.99 -9.99
2019/09/19 08:48 EDT    2.39   2.70   10    5   14  55.0  66.4 1027.8 30.0  1.022 -99.9 -99.99 -9.99
2019/09/19 08:54 EDT    2.45   2.77   11    2   14  55.4  66.4 1027.8 29.9  1.022 -99.9 -99.99 -9.99
2019/09/19 09:00 EDT    2.50   2.82   12    9   15  55.4  66.6 1027.8 29.9  1.022 -99.9 -99.99 -9.99
2019/09/19 09:06 EDT    2.56   2.85   11    5   14  55.4  66.6 1027.8 29.9  1.022 -99.9 -99.99 -9.99
2019/09/19 09:12 EDT    2.62   2.91   10    8   14  56.1  66.4 1027.8 30.0  1.022 -99.9 -99.99 -9.99
2019/09/19 09:18 EDT    2.68   3.00    9    9   14  56.1  66.6 1027.8 29.9  1.022 -99.9 -99.99 -9.99
2019/09/19 09:24 EDT    2.74   3.08    9   14   13  56.5  66.6 1027.9 29.9  1.022 -99.9 -99.99 -9.99
2019/09/19 09:30 EDT    2.79   3.14    9    1   13  56.8  66.4 1027.9 29.9  1.022 -99.9 -99.99 -9.99
2019/09/19 09:36 EDT    2.85   3.22    9  358   12  57.0  66.4 1027.9 30.0  1.022 -99.9 -99.99 -9.99
2019/09/19 09:42 EDT    2.91   3.29   10   17   11  57.4  66.6 1027.8 29.9  1.022 -99.9 -99.99 -9.99
2019/09/19 09:48 EDT    2.97   3.37   11   17   12  57.6  66.6 1027.8 29.9  1.022 -99.9 -99.99 -9.99
2019/09/19 09:54 EDT    3.03   3.43   11   25   14  57.7  66.4 1027.8 30.0  1.022 -99.9 -99.99 -9.99
2019/09/19 10:00 EDT    3.09   3.51   11   23   15  57.6  66.6 1027.8 29.9  1.022 -99.9 -99.99 -9.99
2019/09/19 10:06 EDT    3.14   3.58   11   32   13  58.1  66.6 1027.8 -9.9 -9.999 -99.9 -99.99 -9.99
2019/09/19 10:12 EDT    3.20   3.61   12   33   14  57.4  66.2 1027.9 30.0  1.022 -99.9 -99.99 -9.99
2019/09/19 10:18 EDT    3.25   3.66   10   13   12  57.9  66.2 1028.0 30.0  1.022 -99.9 -99.99 -9.99
2019/09/19 10:24 EDT    3.31   3.76   10   20   12  58.1  66.2 1028.0 30.0  1.022 -99.9 -99.99 -9.99
2019/09/19 10:30 EDT    3.36   3.86   11   21   14  58.3  66.2 1027.9 30.0  1.022 -99.9 -99.99 -9.99
2019/09/19 10:36 EDT    3.41   3.93   10   20   12  58.3  66.2 1027.8 30.0  1.022 -99.9 -99.99 -9.99
2019/09/19 10:42 EDT    3.45   3.96   10   23   13  58.3  66.2 1027.8 30.0  1.022 -99.9 -99.99 -9.99
2019/09/19 10:48 EDT    3.50   4.02   10   28   13  58.5  66.2 1027.8 30.0  1.022 -99.9 -99.99 -9.99
2019/09/19 10:54 EDT    3.54   4.07    8   24   11  58.3  66.2 1027.7 30.0  1.022 -99.9 -99.99 -9.99
2019/09/19 11:00 EDT    3.58   4.15    8   33   11  58.8  66.2 1027.6 29.9  1.022 -99.9 -99.99 -9.99
2019/09/19 11:06 EDT    3.61   4.21    8   42   13  58.8  66.2 1027.6 30.0  1.022 -99.9 -99.99 -9.99
2019/09/19 11:12 EDT    3.64   4.23    8   21   11  59.0  66.2 1027.6 30.0  1.022 -99.9 -99.99 -9.99
2019/09/19 11:18 EDT    3.67   4.25    7    4    9  59.4  66.2 1027.5 30.0  1.022 -99.9 -99.99 -9.99
2019/09/19 11:24 EDT    3.69   4.29    8   32   12  59.2  66.2 1027.6 30.0  1.022 -99.9 -99.99 -9.99
2019/09/19 11:30 EDT    3.71   4.32    8   24   11  59.5  66.6 1027.6 29.9  1.022 -99.9 -99.99 -9.99
2019/09/19 11:36 EDT    3.73   4.36    9   17   11  59.5  66.6 1027.5 29.9  1.022 -99.9 -99.99 -9.99
2019/09/19 11:42 EDT    3.74   4.38    7    4    9  59.5  66.6 1027.4 29.9  1.022 -99.9 -99.99 -9.99
2019/09/19 11:48 EDT    3.74   4.38    7   13   11  59.9  66.6 1027.4 -9.9 -9.999 -99.9 -99.99 -9.99
2019/09/19 11:54 EDT    3.74   4.39    7   24   10  59.9  66.6 1027.4 29.9  1.022 -99.9 -99.99 -9.99
2019/09/19 12:00 EDT    3.73   4.41    8   23   11  60.1  66.7 1027.5 29.9  1.022 -99.9 -99.99 -9.99
2019/09/19 12:06 EDT    3.72   4.40    5  347    9  60.4  66.7 1027.4 29.9  1.022 -99.9 -99.99 -9.99
2019/09/19 12:12 EDT    3.71   4.41    7   15   10  60.3  66.7 1027.4 29.9  1.022 -99.9 -99.99 -9.99
2019/09/19 12:18 EDT    3.69   4.40    7   16    9  60.6  66.7 1027.4 29.9  1.022 -99.9 -99.99 -9.99
2019/09/19 12:24 EDT    3.66   4.37    6   38    8  60.8  66.7 1027.4 29.9  1.022 -99.9 -99.99 -9.99
2019/09/19 12:30 EDT    3.63   4.33    6   33    9  60.6  66.7 1027.4 29.9  1.022 -99.9 -99.99 -9.99
2019/09/19 12:36 EDT    3.59   4.33    6   28    9  61.0  66.7 1027.3 29.9  1.022 -99.9 -99.99 -9.99
2019/09/19 12:42 EDT    3.55   4.29    6   17    8  61.2  66.7 1027.2 29.9  1.022 -99.9 -99.99 -9.99
2019/09/19 12:48 EDT    3.51   4.25    7   14    9  61.3  66.7 1027.1 29.9  1.022 -99.9 -99.99 -9.99
2019/09/19 12:54 EDT    3.46   4.20    5  347    9  61.7  66.7 1027.1 29.9  1.022 -99.9 -99.99 -9.99
2019/09/19 13:00 EDT    3.40   4.16    5   16    8  61.7  66.7 1027.1 29.9  1.022 -99.9 -99.99 -9.99
2019/09/19 13:06 EDT    3.35   4.11    4   56    7  61.7  66.7 1027.0 29.9  1.022 -99.9 -99.99 -9.99
2019/09/19 13:12 EDT    3.28   4.05    5   37    7  61.9  66.7 1026.9 29.0  1.021 -99.9 -99.99 -9.99
2019/09/19 13:18 EDT    3.22   3.96    7   36    8  62.2  66.7 1026.9 29.9  1.022 -99.9 -99.99 -9.99
2019/09/19 13:24 EDT    3.15   3.88    6   36    7  62.2  66.7 1026.8 29.9  1.022 -99.9 -99.99 -9.99
2019/09/19 13:30 EDT    3.08   3.78    4   35    7  62.6  66.7 1026.8 29.9  1.022 -99.9 -99.99 -9.99
2019/09/19 13:36 EDT    3.00   3.69    6   28    9  62.8  66.7 1026.7 29.9  1.022 -99.9 -99.99 -9.99
2019/09/19 13:42 EDT    2.93   3.65    6   28    8  63.1  66.7 1026.6 29.8  1.022 -99.9 -99.99 -9.99
2019/09/19 13:48 EDT    2.85   3.54    7   38    8  62.8  66.7 1026.6 29.9  1.022 -99.9 -99.99 -9.99
2019/09/19 13:54 EDT    2.76   3.43    6   30    8  63.0  66.7 1026.5 -9.9 -9.999 -99.9 -99.99 -9.99
2019/09/19 14:00 EDT    2.68   3.38    6   41    7  63.1  66.7 1026.5 -9.9 -9.999 -99.9 -99.99 -9.99
2019/09/19 14:06 EDT    2.59   3.32    5   31    7  63.3  66.7 1026.4 29.9  1.022 -99.9 -99.99 -9.99
2019/09/19 14:12 EDT    2.51   3.20    5   43    6  63.3  66.7 1026.3 29.9  1.022 -99.9 -99.99 -9.99
2019/09/19 14:18 EDT    2.42   3.10    5   42    6  63.7  66.7 1026.3 29.9  1.022 -99.9 -99.99 -9.99
2019/09/19 14:24 EDT    2.33   3.04    6   38    7  63.7  66.7 1026.3 29.9  1.022 -99.9 -99.99 -9.99
2019/09/19 14:30 EDT    2.24   2.93    5   40    7  63.9  66.7 1026.3 29.9  1.022 -99.9 -99.99 -9.99
2019/09/19 14:36 EDT    2.15   2.78    4   43    5  63.9  66.7 1026.2 29.9  1.022 -99.9 -99.99 -9.99
2019/09/19 14:42 EDT    2.07   2.72    4   57    5  64.0  66.7 1026.2 29.9  1.022 -99.9 -99.99 -9.99
2019/09/19 14:48 EDT    1.98   2.64    5   44    6  64.2  66.7 1026.1 29.9  1.022 -99.9 -99.99 -9.99
2019/09/19 14:54 EDT    1.89   2.50    4   48    5  64.6  66.7 1026.0 29.9  1.022 -99.9 -99.99 -9.99
2019/09/19 15:00 EDT    1.80   2.37    4   56    5  64.4  66.6 1026.0 30.0  1.022 -99.9 -99.99 -9.99
2019/09/19 15:06 EDT    1.72   2.28    4   56    5  64.6  66.7 1026.1 30.0  1.022 -99.9 -99.99 -9.99
2019/09/19 15:12 EDT    1.64   2.18    4   59    4  64.8  66.6 1026.0 30.0  1.022 -99.9 -99.99 -9.99
2019/09/19 15:18 EDT    1.55   2.04    4   61    6  64.9  66.6 1026.0 30.0  1.022 -99.9 -99.99 -9.99
2019/09/19 15:24 EDT    1.47   1.94    4   74    7  64.9  66.7 1025.9 30.0  1.022 -99.9 -99.99 -9.99
2019/09/19 15:30 EDT    1.40   1.88    3   79    4  65.1  66.7 1025.8 30.0  1.022 -99.9 -99.99 -9.99
2019/09/19 15:36 EDT    1.32   1.81    4   80    5  64.9  66.7 1025.7 30.0  1.022 -99.9 -99.99 -9.99
2019/09/19 15:42 EDT    1.25   1.68    4   87    5  65.1  66.9 1025.7 29.9  1.022 -99.9 -99.99 -9.99
2019/09/19 15:48 EDT    1.18   1.60    4   63    5  65.3  66.9 1025.5 29.9  1.022 -99.9 -99.99 -9.99
2019/09/19 15:54 EDT    1.12   1.56    3   60    4  65.5  66.6 1025.4 29.9  1.022 -99.9 -99.99 -9.99
2019/09/19 16:00 EDT    1.05   1.50    3   61    4  65.5  66.6 1025.4 29.9  1.022 -99.9 -99.99 -9.99
2019/09/19 16:06 EDT    1.00   1.42    4   55    4  65.7  66.6 1025.4 29.9  1.022 -99.9 -99.99 -9.99
2019/09/19 16:12 EDT    0.94   1.36    3   72    4  65.8  66.6 1025.4 29.9  1.022 -99.9 -99.99 -9.99
2019/09/19 16:18 EDT    0.89   1.31    3   64    5  65.8  66.6 1025.4 29.9  1.022 -99.9 -99.99 -9.99
2019/09/19 16:24 EDT    0.84   1.25    4   73    4  65.8  66.6 1025.4 29.9  1.022 -99.9 -99.99 -9.99
2019/09/19 16:30 EDT    0.80   1.20    4   72    4  65.8  66.6 1025.4 29.9  1.022 -99.9 -99.99 -9.99
2019/09/19 16:36 EDT    0.76   1.18    4   85    4  66.0  66.6 1025.4 30.0  1.022 -99.9 -99.99 -9.99
2019/09/19 16:42 EDT    0.73 -99.99 -999 -999 -999 -99.9 -99.9 -999.9 -9.9 -9.999 -99.9 -99.99 -9.99
2019/09/19 16:48 EDT    0.70 -99.99 -999 -999 -999 -99.9 -99.9 -999.9 -9.9 -9.999 -99.9 -99.99 -9.99
2019/09/19 16:54 EDT    0.67 -99.99 -999 -999 -999 -99.9 -99.9 -999.9 -9.9 -9.999 -99.9 -99.99 -9.99
2019/09/19 17:00 EDT    0.65 -99.99 -999 -999 -999 -99.9 -99.9 -999.9 -9.9 -9.999 -99.9 -99.99 -9.99
2019/09/19 17:06 EDT    0.64 -99.99 -999 -999 -999 -99.9 -99.9 -999.9 -9.9 -9.999 -99.9 -99.99 -9.99
2019/09/19 17:12 EDT    0.63 -99.99 -999 -999 -999 -99.9 -99.9 -999.9 -9.9 -9.999 -99.9 -99.99 -9.99
2019/09/19 17:18 EDT    0.62 -99.99 -999 -999 -999 -99.9 -99.9 -999.9 -9.9 -9.999 -99.9 -99.99 -9.99
2019/09/19 17:24 EDT    0.62 -99.99 -999 -999 -999 -99.9 -99.9 -999.9 -9.9 -9.999 -99.9 -99.99 -9.99
2019/09/19 17:30 EDT    0.62 -99.99 -999 -999 -999 -99.9 -99.9 -999.9 -9.9 -9.999 -99.9 -99.99 -9.99
2019/09/19 17:36 EDT    0.62 -99.99 -999 -999 -999 -99.9 -99.9 -999.9 -9.9 -9.999 -99.9 -99.99 -9.99
2019/09/19 17:42 EDT    0.63 -99.99 -999 -999 -999 -99.9 -99.9 -999.9 -9.9 -9.999 -99.9 -99.99 -9.99
2019/09/19 17:48 EDT    0.65 -99.99 -999 -999 -999 -99.9 -99.9 -999.9 -9.9 -9.999 -99.9 -99.99 -9.99
2019/09/19 17:54 EDT    0.66 -99.99 -999 -999 -999 -99.9 -99.9 -999.9 -9.9 -9.999 -99.9 -99.99 -9.99
2019/09/19 18:00 EDT    0.68 -99.99 -999 -999 -999 -99.9 -99.9 -999.9 -9.9 -9.999 -99.9 -99.99 -9.99
2019/09/19 18:06 EDT    0.71 -99.99 -999 -999 -999 -99.9 -99.9 -999.9 -9.9 -9.999 -99.9 -99.99 -9.99
2019/09/19 18:12 EDT    0.73 -99.99 -999 -999 -999 -99.9 -99.9 -999.9 -9.9 -9.999 -99.9 -99.99 -9.99
2019/09/19 18:18 EDT    0.76 -99.99 -999 -999 -999 -99.9 -99.9 -999.9 -9.9 -9.999 -99.9 -99.99 -9.99
2019/09/19 18:24 EDT    0.79 -99.99 -999 -999 -999 -99.9 -99.9 -999.9 -9.9 -9.999 -99.9 -99.99 -9.99
2019/09/19 18:30 EDT    0.82 -99.99 -999 -999 -999 -99.9 -99.9 -999.9 -9.9 -9.999 -99.9 -99.99 -9.99
2019/09/19 18:36 EDT    0.85 -99.99 -999 -999 -999 -99.9 -99.9 -999.9 -9.9 -9.999 -99.9 -99.99 -9.99
2019/09/19 18:42 EDT    0.89 -99.99 -999 -999 -999 -99.9 -99.9 -999.9 -9.9 -9.999 -99.9 -99.99 -9.99
2019/09/19 18:48 EDT    0.92 -99.99 -999 -999 -999 -99.9 -99.9 -999.9 -9.9 -9.999 -99.9 -99.99 -9.99
2019/09/19 18:54 EDT    0.96 -99.99 -999 -999 -999 -99.9 -99.9 -999.9 -9.9 -9.999 -99.9 -99.99 -9.99
2019/09/19 19:00 EDT    1.00 -99.99 -999 -999 -999 -99.9 -99.9 -999.9 -9.9 -9.999 -99.9 -99.99 -9.99
2019/09/19 19:06 EDT    1.04 -99.99 -999 -999 -999 -99.9 -99.9 -999.9 -9.9 -9.999 -99.9 -99.99 -9.99
2019/09/19 19:12 EDT    1.08 -99.99 -999 -999 -999 -99.9 -99.9 -999.9 -9.9 -9.999 -99.9 -99.99 -9.99
2019/09/19 19:18 EDT    1.12 -99.99 -999 -999 -999 -99.9 -99.9 -999.9 -9.9 -9.999 -99.9 -99.99 -9.99
2019/09/19 19:24 EDT    1.16 -99.99 -999 -999 -999 -99.9 -99.9 -999.9 -9.9 -9.999 -99.9 -99.99 -9.99
2019/09/19 19:30 EDT    1.19 -99.99 -999 -999 -999 -99.9 -99.9 -999.9 -9.9 -9.999 -99.9 -99.99 -9.99
2019/09/19 19:36 EDT    1.23 -99.99 -999 -999 -999 -99.9 -99.9 -999.9 -9.9 -9.999 -99.9 -99.99 -9.99
2019/09/19 19:42 EDT    1.27 -99.99 -999 -999 -999 -99.9 -99.9 -999.9 -9.9 -9.999 -99.9 -99.99 -9.99
2019/09/19 19:48 EDT    1.31 -99.99 -999 -999 -999 -99.9 -99.9 -999.9 -9.9 -9.999 -99.9 -99.99 -9.99
2019/09/19 19:54 EDT    1.35 -99.99 -999 -999 -999 -99.9 -99.9 -999.9 -9.9 -9.999 -99.9 -99.99 -9.99
2019/09/19 20:00 EDT    1.39 -99.99 -999 -999 -999 -99.9 -99.9 -999.9 -9.9 -9.999 -99.9 -99.99 -9.99
2019/09/19 20:06 EDT    1.43 -99.99 -999 -999 -999 -99.9 -99.9 -999.9 -9.9 -9.999 -99.9 -99.99 -9.99
2019/09/19 20:12 EDT    1.47 -99.99 -999 -999 -999 -99.9 -99.9 -999.9 -9.9 -9.999 -99.9 -99.99 -9.99
2019/09/19 20:18 EDT    1.51 -99.99 -999 -999 -999 -99.9 -99.9 -999.9 -9.9 -9.999 -99.9 -99.99 -9.99
2019/09/19 20:24 EDT    1.55 -99.99 -999 -999 -999 -99.9 -99.9 -999.9 -9.9 -9.999 -99.9 -99.99 -9.99
2019/09/19 20:30 EDT    1.59 -99.99 -999 -999 -999 -99.9 -99.9 -999.9 -9.9 -9.999 -99.9 -99.99 -9.99
2019/09/19 20:36 EDT    1.63 -99.99 -999 -999 -999 -99.9 -99.9 -999.9 -9.9 -9.999 -99.9 -99.99 -9.99
2019/09/19 20:42 EDT    1.67 -99.99 -999 -999 -999 -99.9 -99.9 -999.9 -9.9 -9.999 -99.9 -99.99 -9.99
2019/09/19 20:48 EDT    1.71 -99.99 -999 -999 -999 -99.9 -99.9 -999.9 -9.9 -9.999 -99.9 -99.99 -9.99
2019/09/19 20:54 EDT    1.75 -99.99 -999 -999 -999 -99.9 -99.9 -999.9 -9.9 -9.999 -99.9 -99.99 -9.99
2019/09/19 21:00 EDT    1.80 -99.99 -999 -999 -999 -99.9 -99.9 -999.9 -9.9 -9.999 -99.9 -99.99 -9.99
2019/09/19 21:06 EDT    1.84 -99.99 -999 -999 -999 -99.9 -99.9 -999.9 -9.9 -9.999 -99.9 -99.99 -9.99
2019/09/19 21:12 EDT    1.89 -99.99 -999 -999 -999 -99.9 -99.9 -999.9 -9.9 -9.999 -99.9 -99.99 -9.99
2019/09/19 21:18 EDT    1.93 -99.99 -999 -999 -999 -99.9 -99.9 -999.9 -9.9 -9.999 -99.9 -99.99 -9.99
2019/09/19 21:24 EDT    1.98 -99.99 -999 -999 -999 -99.9 -99.9 -999.9 -9.9 -9.999 -99.9 -99.99 -9.99
2019/09/19 21:30 EDT    2.03 -99.99 -999 -999 -999 -99.9 -99.9 -999.9 -9.9 -9.999 -99.9 -99.99 -9.99
2019/09/19 21:36 EDT    2.09 -99.99 -999 -999 -999 -99.9 -99.9 -999.9 -9.9 -9.999 -99.9 -99.99 -9.99
2019/09/19 21:42 EDT    2.14 -99.99 -999 -999 -999 -99.9 -99.9 -999.9 -9.9 -9.999 -99.9 -99.99 -9.99
2019/09/19 21:48 EDT    2.19 -99.99 -999 -999 -999 -99.9 -99.9 -999.9 -9.9 -9.999 -99.9 -99.99 -9.99
2019/09/19 21:54 EDT    2.25 -99.99 -999 -999 -999 -99.9 -99.9 -999.9 -9.9 -9.999 -99.9 -99.99 -9.99
2019/09/19 22:00 EDT    2.31 -99.99 -999 -999 -999 -99.9 -99.9 -999.9 -9.9 -9.999 -99.9 -99.99 -9.99
2019/09/19 22:06 EDT    2.37 -99.99 -999 -999 -999 -99.9 -99.9 -999.9 -9.9 -9.999 -99.9 -99.99 -9.99
2019/09/19 22:12 EDT    2.43 -99.99 -999 -999 -999 -99.9 -99.9 -999.9 -9.9 -9.999 -99.9 -99.99 -9.99
2019/09/19 22:18 EDT    2.49 -99.99 -999 -999 -999 -99.9 -99.9 -999.9 -9.9 -9.999 -99.9 -99.99 -9.99
2019/09/19 22:24 EDT    2.55 -99.99 -999 -999 -999 -99.9 -99.9 -999.9 -9.9 -9.999 -99.9 -99.99 -9.99
2019/09/19 22:30 EDT    2.61 -99.99 -999 -999 -999 -99.9 -99.9 -999.9 -9.9 -9.999 -99.9 -99.99 -9.99
2019/09/19 22:36 EDT    2.67 -99.99 -999 -999 -999 -99.9 -99.9 -999.9 -9.9 -9.999 -99.9 -99.99 -9.99
2019/09/19 22:42 EDT    2.73 -99.99 -999 -999 -999 -99.9 -99.9 -999.9 -9.9 -9.999 -99.9 -99.99 -9.99
2019/09/19 22:48 EDT    2.79 -99.99 -999 -999 -999 -99.9 -99.9 -999.9 -9.9 -9.999 -99.9 -99.99 -9.99
2019/09/19 22:54 EDT    2.84 -99.99 -999 -999 -999 -99.9 -99.9 -999.9 -9.9 -9.999 -99.9 -99.99 -9.99